sim
Sign-in with your pilot id or email,
or register
Callsign
Passwort

Schedule Details

Flight Number: DLH1863 (1)
Departure: Milan Malpensa Airport (LIMC) at 19:25
Arrival: Munich Airport (EDDM) at 20:35
Route: Lufthansa Passenger Schedule. Enter filed route here before submitting Pirep.

Weather Information
Getting current METAR information for LIMC 191620Z 18003KT CAVOK 24/15 Q1017 NOSIG
Getting current METAR information for EDDM 191620Z 05003KT CAVOK 20/12 Q1018 NOSIG

Schedule Frequency

Route Map